Terminal Aerodrome Forecast
Issued by NWS

Home | Current Version | Previous Version | Text Only | Print | Product List | Glossary On
Versions: 1 2 3 4 5 6 7 8 9 10 11 12 13 14 15
000
FTUS43 KAPX 282320
TAFTVC
TAF
KTVC 282320Z 0100/0124 20004KT P6SM BKN200
     FM010400 20004KT P6SM SCT040 OVC080 WS015/21025KT
     FM010900 20005KT 2SM -SHSN SCT015 OVC025 WS020/21025KT
     FM011500 23010KT 4SM -SHSN SCT025 OVC035=

USA.gov is the U.S. government's official web portal to all federal, state and local government web resources and services.